CheckWX is a tool to help pilots better visualize weather data.  It is not intended as a substitute for an official pre-flight weather briefing.

12:51:57 UTC

KOSA METAR
Mount Pleasant Regional Airport
Mount Pleasant, Texas, USA
Current

17 mins ago

KOSA 251235Z AUTO 31006KT 10SM CLR 07/04 A2991 RMK AO1 T00680041
Observed
Feb-25 @ 12:35 UTC
Wind
  • 310° at 6 KTS
Visibility
10 SM
Flight Rules
VFR
Cloud Levels
  • Clear skies
Temperature
C / 45°F
Dewpoint
C / 39°F
Humidity
81%
Altimeter
29.91" Hg
Pressure
1012.92 hPa
Previous

37 mins ago

KOSA 251215Z AUTO 31007KT 10SM CLR 07/04 A2990 RMK AO1 T00700041
Observed
Feb-25 @ 12:15 UTC
Wind
  • 310° at 7 KTS
Visibility
10 SM
Flight Rules
VFR
Cloud Levels
  • Clear skies
Temperature
C / 45°F
Dewpoint
C / 39°F
Humidity
81%
Altimeter
29.9" Hg
Pressure
1012.52 hPa
Previous

57 mins ago

KOSA 251155Z AUTO 31006KT 10SM CLR 07/04 A2990 RMK AO1 T00700041 10095 20070
Observed
Feb-25 @ 11:55 UTC
Wind
  • 310° at 6 KTS
Visibility
10 SM
Flight Rules
VFR
Cloud Levels
  • Clear skies
Temperature
C / 45°F
Dewpoint
C / 39°F
Humidity
81%
Altimeter
29.9" Hg
Pressure
1012.52 hPa